Terminal Aerodrome Forecast
Issued by NWS

Home | Current Version | Previous Version | Text Only | Print | Product List | Glossary On
Versions: 1 2 3 4 5 6 7 8 9 10 11 12 13 14 15 16
741
FTUS45 KTFX 231746
TAFBZN
TAF
KBZN 231746Z 2318/2424 VRB06KT P6SM SCT090
     FM232000 23013G25KT P6SM SCT080
     FM240000 24011KT P6SM SCT060 BKN120
     FM240600 29014KT P6SM -RA SCT010 BKN040
      TEMPO 2406/2409 28025G40KT BKN010
     FM241100 27008KT P6SM SCT030 BKN060
     FM241700 28008KT P6SM SCT080=

USA.gov is the U.S. government's official web portal to all federal, state and local government web resources and services.